Pagina principale
METAR-TAF:

METAR-TAF

Aeroporti :

Frosinone, Italia

latitudine: 41-38N, longitudine: 013-18E, altezza: 180 m

Osservazione

Il bollettino è stato emesso 27 minuti fa, alle 15:55 UTC
Vento 8 kt da ovest/nord-ovest
Temperature 34°C
Umidità 39%
Pressione 1015 hPa
Visibilità 10 km o più
nessuna nube inferiore a 1500 m e nessun cumulonembo

METAR: LIRH 191555Z 30008KT CAVOK 34/18 Q1015 RMK SKC MON LIB NC VIS MIN 9999 WIND THR16 30011KT BLU

Ora: 18:22 (16:22 UTC)

Previsione

Il bollettino è stato emesso 2 ore e 22 minuti fa, alle 14:00 UTC
Previsione valida dal 19 alle 15 UTC al 19 alle 24 UTC
Vento 10 kt da ovest
Visibilità 10 km o più
Poco nuvoloso ad un'altezza di 4000 ft
Evoluzione graduale
dal 19 alle 18 UTC al 19 alle 20 UTC
Vento 3 kt da direzioni variabili
Visibilità 10 km o più
nessuna nube inferiore a 1500 m e nessun cumulonembo

TAF: LIRH 191400Z 1915/1924 26010KT 9999 FEW040 BECMG 1918/1920 VRB03KT CAVOK

Osservazioni e previsioni meteorologiche di più di 4000 aeroporti (messaggi METAR e TAF).

Le stazioni disponibili sono rappresentate dai dischi gialli e rossi sulla carta.

Puntare il mouse per vedere il nome della stazione.

Clicca sopra per visualizzare le osservazioni e previsioni meteorologiche.

Per cambiare la mappa : fare clic sui pulsanti verdi con una croce nera per ingrandire, il pulsante verde con un trattino per diminuire, o sulla freccia verde per le mappe adiacenti.


METAR-TAF: